Startpagina
METAR-TAF:

METAR-TAF

Vliegvelden :

Militair vliegvled Cameri

Novara, Italië

breedte: 45-31N, lengte: 008-40E, hoogte: 178 m

Actueel weer

Dit bericht is 1 uur en het 13 minuten geleden gemaakt, om 15:55 UTC
Wind 18 kt uit het noordnoordwesten met uitschieters tot 28 kt
Temperatuur 10°C
Vochtigheid 17%
Druk 1001 hPa
Zicht 10 km of meer
Verspreide wolken op 2500 ft

METAR: LIMN 261555Z 33018G28KT 9999 SCT025 10/M14 Q1001 RMK SCT VIS MIN 9999 BLU

Tijdstip: 18:08 (17:08 UTC)

Verwachting

Dit bericht is 3 uur en het 8 minuten geleden gemaakt, om 14:00 UTC
Verwachting geldig van 26 om 15 UTC tot 26 om 24 UTC
Wind 10 kt uit het zuidwesten
Zicht 10 km of meer
Verspreide wolken op 2000 ft
Tijdelijke
van 26 om 15 UTC tot 26 om 21 UTC
Wind 25 kt uit het westnoordwesten met uitschieters tot 35 kt

TAF: LIMN 261400Z 2615/2624 22010KT 9999 SCT020 TEMPO 2615/2621 29025G35KT

Waarnemingen en weersverwachtingen van meer dan 4000 vliegvelden (METAR en TAF).

De beschikbare stations zijn de gele en rode punten op de kaart.

Ga met uw muis naar het station om de naam te zien.

Klik dan om waarnemingen en weersverwachtingen te zien.

kaart wijzigen: klik op de groene knoppen met een zwart kruis om in te zoomen, op de groene knop met een streepje om uit te zoomen of op de groene pijlen voor aangrenzende kaarten.


METAR-TAF: